Time;durP1;ratioP1;P1;durP2;ratioP2;P2;SDS_P1;SDS_P2;PMS_P1;PMS_P2;Temp;Humidity;BMP_temperature;BMP_pressure;BME280_temperature;BME280_humidity;BME280_pressure;Samples;Min_cycle;Max_cycle;Signal;HPM_P1;HPM_P2
2021/05/15 00:01:33;;;;;;;4.93;2.90;;;18.20;60.80;;;;;;10537595;28;20107;-59
2021/05/15 00:06:34;;;;;;;4.05;2.80;;;18.20;61.40;;;;;;10537900;28;20077;-59
2021/05/15 00:11:35;;;;;;;3.55;2.70;;;18.20;60.80;;;;;;10537458;28;20031;-59
2021/05/15 00:16:36;;;;;;;4.45;3.45;;;18.20;60.80;;;;;;10537268;28;20383;-59
2021/05/15 00:21:37;;;;;;;3.75;2.70;;;18.20;60.70;;;;;;10537231;28;20034;-59
2021/05/15 00:26:38;;;;;;;4.28;2.92;;;18.20;61.30;;;;;;10537146;28;20032;-58
2021/05/15 00:31:39;;;;;;;3.58;2.95;;;18.20;60.70;;;;;;10537377;28;20081;-59
2021/05/15 00:36:39;;;;;;;3.53;2.55;;;18.20;60.70;;;;;;10545456;28;20028;-59
2021/05/15 00:41:40;;;;;;;4.57;2.95;;;18.20;60.70;;;;;;10537480;28;20408;-59
2021/05/15 00:46:44;;;;;;;4.72;3.90;;;18.20;60.70;;;;;;10558713;28;20114;-59
2021/05/15 00:51:45;;;;;;;3.50;2.92;;;18.20;60.60;;;;;;10526366;28;20023;-58
2021/05/15 00:56:46;;;;;;;4.22;3.05;;;18.20;60.60;;;;;;10525886;28;20032;-59
2021/05/15 01:01:47;;;;;;;4.72;3.20;;;18.10;60.60;;;;;;10525903;28;20081;-58
2021/05/15 01:06:48;;;;;;;4.05;3.08;;;18.10;60.50;;;;;;10543456;28;20506;-58
2021/05/15 01:11:49;;;;;;;4.18;3.30;;;18.10;60.50;;;;;;10525194;28;20472;-59
2021/05/15 01:16:50;;;;;;;4.32;3.17;;;18.10;60.50;;;;;;10543283;28;20051;-59
2021/05/15 01:21:50;;;;;;;5.05;4.07;;;18.10;60.50;;;;;;10525287;28;20479;-59
2021/05/15 01:26:51;;;;;;;4.68;3.80;;;18.10;60.40;;;;;;10542762;28;20054;-58
2021/05/15 01:31:52;;;;;;;5.35;3.70;;;18.10;60.30;;;;;;10543075;28;20062;-59
2021/05/15 01:36:53;;;;;;;5.25;3.58;;;18.10;60.40;;;;;;10552854;28;20421;-59
2021/05/15 01:41:54;;;;;;;4.65;3.05;;;18.10;60.40;;;;;;10541115;28;20048;-59
2021/05/15 01:46:55;;;;;;;4.70;3.45;;;18.00;60.30;;;;;;10560310;28;20048;-58
2021/05/15 01:51:56;;;;;;;5.57;3.50;;;18.00;60.30;;;;;;10541847;28;20483;-59
2021/05/15 01:56:57;;;;;;;5.30;3.63;;;18.00;60.30;;;;;;10541418;28;20531;-59
2021/05/15 02:01:57;;;;;;;5.45;3.90;;;18.10;60.40;;;;;;10541451;28;20031;-59
2021/05/15 02:06:58;;;;;;;4.72;3.65;;;18.10;60.40;;;;;;10541626;28;20038;-59
2021/05/15 02:11:59;;;;;;;4.72;3.83;;;18.00;60.30;;;;;;10522846;28;20480;-58
2021/05/15 02:17:00;;;;;;;5.78;3.92;;;18.00;60.40;;;;;;10541044;28;20437;-58
2021/05/15 02:22:00;;;;;;;5.43;3.35;;;18.00;60.40;;;;;;10540625;28;20067;-58
2021/05/15 02:27:01;;;;;;;5.18;3.53;;;18.00;60.40;;;;;;10540336;28;20150;-59
2021/05/15 02:32:02;;;;;;;4.68;4.18;;;18.00;60.30;;;;;;10541156;28;20456;-59
2021/05/15 02:37:03;;;;;;;5.05;3.65;;;18.00;60.30;;;;;;10551697;28;20552;-58
2021/05/15 02:42:04;;;;;;;5.28;4.15;;;18.00;60.30;;;;;;10541306;28;20052;-58
2021/05/15 02:47:04;;;;;;;5.13;3.75;;;18.00;60.30;;;;;;10556973;28;20107;-58
2021/05/15 02:52:05;;;;;;;5.97;3.92;;;17.90;60.30;;;;;;10521773;28;20024;-59
2021/05/15 02:57:07;;;;;;;5.68;3.50;;;17.90;60.20;;;;;;10539778;28;20039;-59
2021/05/15 03:02:08;;;;;;;6.20;4.28;;;17.90;60.30;;;;;;10539117;28;20034;-58
2021/05/15 03:07:09;;;;;;;4.85;3.63;;;17.90;60.80;;;;;;10538503;28;20028;-58
2021/05/15 03:12:10;;;;;;;4.80;4.07;;;17.90;60.20;;;;;;10538562;28;20056;-58
2021/05/15 03:17:11;;;;;;;5.53;4.00;;;17.90;60.20;;;;;;10538637;28;20498;-59
2021/05/15 03:22:12;;;;;;;5.72;4.32;;;17.90;60.20;;;;;;10520295;28;20032;-58
2021/05/15 03:27:13;;;;;;;4.50;3.90;;;17.90;60.20;;;;;;10538253;28;20472;-59
2021/05/15 03:32:14;;;;;;;5.50;3.95;;;17.90;60.10;;;;;;10538348;28;20027;-58
2021/05/15 03:37:14;;;;;;;6.32;3.88;;;17.90;60.10;;;;;;10551081;28;20024;-59
2021/05/15 03:42:15;;;;;;;6.13;5.10;;;17.90;60.10;;;;;;10537647;28;20055;-59
2021/05/15 03:47:16;;;;;;;5.18;4.07;;;17.90;60.10;;;;;;10553911;28;20036;-58
2021/05/15 03:52:17;;;;;;;5.07;4.53;;;17.90;60.10;;;;;;10534537;28;20399;-59
2021/05/15 03:57:18;;;;;;;5.40;4.47;;;17.80;60.10;;;;;;10516282;28;20127;-58
2021/05/15 04:02:22;;;;;;;6.72;4.03;;;17.80;60.10;;;;;;10519207;28;20028;-58
2021/05/15 04:07:23;;;;;;;5.25;4.32;;;17.80;60.10;;;;;;10537995;28;20069;-58
2021/05/15 04:12:25;;;;;;;5.28;4.72;;;17.80;60.10;;;;;;10537888;28;20469;-58
2021/05/15 04:17:29;;;;;;;5.43;4.32;;;17.80;60.10;;;;;;10537576;28;20028;-58
2021/05/15 04:22:30;;;;;;;5.88;4.80;;;17.80;60.10;;;;;;10543139;28;20114;-58
2021/05/15 04:27:31;;;;;;;7.15;5.25;;;17.80;60.10;;;;;;10545904;28;20501;-59
2021/05/15 04:32:32;;;;;;;6.43;4.75;;;17.80;60.10;;;;;;10574115;28;20031;-59
2021/05/15 04:37:32;;;;;;;7.00;5.18;;;17.80;60.20;;;;;;10585114;28;20162;-59
2021/05/15 04:42:36;;;;;;;5.13;4.63;;;17.80;60.20;;;;;;10544769;28;20082;-59
2021/05/15 04:47:38;;;;;;;5.38;4.80;;;17.80;60.20;;;;;;10563090;28;20103;-58
2021/05/15 04:52:39;;;;;;;5.30;4.22;;;17.80;60.20;;;;;;10544578;28;20476;-58
2021/05/15 04:57:39;;;;;;;5.32;4.82;;;17.70;60.20;;;;;;10544444;28;20146;-59
2021/05/15 05:02:40;;;;;;;5.63;4.75;;;17.70;60.30;;;;;;10544603;28;20126;-58
2021/05/15 05:07:42;;;;;;;5.85;5.25;;;17.80;60.30;;;;;;10544089;28;20040;-59
2021/05/15 05:12:43;;;;;;;5.95;5.10;;;17.70;60.20;;;;;;10543845;28;20020;-59
2021/05/15 05:17:43;;;;;;;7.45;6.05;;;17.80;60.20;;;;;;10543872;28;20103;-59
2021/05/15 05:22:44;;;;;;;6.57;5.43;;;17.70;60.10;;;;;;10525436;28;20472;-59
2021/05/15 05:27:47;;;;;;;8.27;6.35;;;17.70;60.10;;;;;;10543461;28;20455;-59
2021/05/15 05:32:50;;;;;;;7.38;5.55;;;17.70;60.10;;;;;;10542747;28;20046;-59
2021/05/15 05:37:51;;;;;;;8.40;5.03;;;17.70;60.20;;;;;;10556177;28;20031;-59
2021/05/15 05:42:51;;;;;;;7.00;5.50;;;17.70;60.30;;;;;;10547581;28;20042;-58
2021/05/15 05:47:52;;;;;;;7.57;5.80;;;17.70;60.30;;;;;;10511375;28;20035;-59
2021/05/15 05:52:55;;;;;;;7.97;6.55;;;17.70;60.30;;;;;;10542559;28;20055;-59
2021/05/15 05:57:56;;;;;;;7.78;6.00;;;17.70;60.30;;;;;;10542154;28;20040;-59
2021/05/15 06:02:56;;;;;;;6.97;5.40;;;17.70;60.30;;;;;;10523842;28;20035;-59
2021/05/15 06:08:11;;;;;;;7.60;5.55;;;17.70;60.40;;;;;;10541698;28;20032;-58
2021/05/15 06:13:11;;;;;;;9.18;5.80;;;17.70;60.50;;;;;;10538118;28;20020;-59
2021/05/15 06:18:12;;;;;;;6.53;4.55;;;17.70;60.60;;;;;;10583962;28;20100;-59
2021/05/15 06:23:14;;;;;;;7.78;5.38;;;17.70;60.70;;;;;;10580322;28;20048;-59
2021/05/15 06:28:15;;;;;;;8.10;6.25;;;17.70;60.60;;;;;;10548321;28;20468;-58
2021/05/15 06:33:16;;;;;;;7.13;6.13;;;17.70;60.70;;;;;;10540919;28;20031;-59
2021/05/15 06:38:18;;;;;;;6.72;5.50;;;17.60;60.80;;;;;;10550756;28;20052;-59
2021/05/15 06:43:19;;;;;;;7.80;5.80;;;17.60;60.70;;;;;;10539621;28;20028;-59
2021/05/15 06:48:20;;;;;;;8.05;6.10;;;17.70;60.90;;;;;;10522000;28;20393;-59
2021/05/15 06:53:21;;;;;;;6.00;5.30;;;17.60;60.90;;;;;;10543496;28;20047;-59
2021/05/15 06:58:21;;;;;;;7.22;5.85;;;17.70;61.00;;;;;;10566904;28;20093;-59
2021/05/15 07:03:22;;;;;;;7.38;6.10;;;17.60;61.00;;;;;;10539670;28;20368;-59
2021/05/15 07:08:23;;;;;;;8.90;6.72;;;17.60;61.00;;;;;;10521505;28;20024;-58
2021/05/15 07:13:24;;;;;;;10.15;7.28;;;17.60;61.00;;;;;;10539456;28;20024;-59
2021/05/15 07:18:24;;;;;;;9.05;7.10;;;17.60;61.00;;;;;;10520851;28;20032;-59
2021/05/15 07:23:25;;;;;;;7.90;6.82;;;17.60;61.10;;;;;;10548330;28;20051;-59
2021/05/15 07:28:26;;;;;;;7.80;6.28;;;17.60;61.20;;;;;;10533303;28;20498;-59
2021/05/15 07:33:27;;;;;;;9.75;7.63;;;17.60;61.20;;;;;;10512490;28;20020;-59
2021/05/15 07:38:27;;;;;;;8.68;7.45;;;17.60;61.10;;;;;;10545728;28;20067;-59
2021/05/15 07:43:28;;;;;;;8.38;6.65;;;17.60;61.20;;;;;;10558063;28;20058;-59
2021/05/15 07:48:29;;;;;;;9.05;6.90;;;17.60;61.10;;;;;;10538293;28;20032;-59
2021/05/15 07:53:30;;;;;;;8.25;7.00;;;17.60;61.30;;;;;;10520774;28;20031;-58
2021/05/15 07:58:31;;;;;;;7.90;6.65;;;17.60;61.10;;;;;;10537709;28;20103;-60
2021/05/15 08:03:32;;;;;;;8.43;6.30;;;17.60;60.90;;;;;;10528544;28;20062;-59
2021/05/15 08:08:33;;;;;;;8.57;6.63;;;17.60;60.90;;;;;;10546916;28;20367;-59
2021/05/15 08:13:33;;;;;;;8.02;6.40;;;17.60;61.00;;;;;;10546734;28;20036;-59
2021/05/15 08:18:34;;;;;;;7.85;6.18;;;17.60;61.00;;;;;;10545854;28;20107;-59
2021/05/15 08:23:36;;;;;;;8.02;6.55;;;17.60;61.00;;;;;;10559450;28;20032;-59
2021/05/15 08:28:48;;;;;;;10.30;8.60;;;17.60;61.00;;;;;;10559377;28;20028;-59
2021/05/15 08:33:49;;;;;;;10.13;7.78;;;17.60;60.80;;;;;;10546476;28;20665;-59
2021/05/15 08:38:52;;;;;;;9.25;7.47;;;17.60;60.80;;;;;;10510087;28;20131;-58
2021/05/15 08:43:54;;;;;;;7.90;7.00;;;17.60;60.90;;;;;;10544965;28;20036;-59
2021/05/15 08:48:59;;;;;;;7.68;6.68;;;17.60;60.80;;;;;;10544717;28;20058;-58
2021/05/15 08:53:59;;;;;;;11.13;8.07;;;17.60;60.90;;;;;;10545021;28;20032;-58
2021/05/15 08:59:00;;;;;;;8.48;7.30;;;17.60;60.80;;;;;;10526745;28;20070;-58
2021/05/15 09:04:01;;;;;;;9.23;7.57;;;17.70;60.80;;;;;;10526400;28;20036;-58
2021/05/15 09:09:01;;;;;;;8.65;7.75;;;17.60;60.80;;;;;;10543259;28;20032;-59
2021/05/15 09:14:03;;;;;;;10.50;7.85;;;17.70;60.80;;;;;;10525656;28;20039;-58
2021/05/15 09:19:07;;;;;;;7.97;7.18;;;17.70;60.80;;;;;;10525881;28;20096;-59
2021/05/15 09:24:11;;;;;;;7.60;6.75;;;17.60;60.80;;;;;;10557257;28;20391;-58
2021/05/15 09:29:12;;;;;;;10.70;7.95;;;17.70;60.90;;;;;;10560266;28;20115;-58
2021/05/15 09:34:13;;;;;;;9.05;7.15;;;17.60;60.90;;;;;;10543011;28;20480;-58
2021/05/15 09:39:18;;;;;;;9.45;7.30;;;17.60;60.90;;;;;;10542608;28;20174;-58
2021/05/15 09:44:33;;;;;;;9.02;7.20;;;17.60;60.90;;;;;;10542992;28;20024;-58
2021/05/15 09:49:37;;;;;;;10.10;8.20;;;17.60;60.70;;;;;;10507859;28;20050;-59
2021/05/15 09:54:43;;;;;;;9.15;7.78;;;17.70;60.70;;;;;;10524748;28;20381;-58
2021/05/15 09:59:51;;;;;;;10.70;8.20;;;17.60;60.70;;;;;;10553902;28;20028;-59
2021/05/15 10:04:52;;;;;;;11.07;8.30;;;17.70;60.80;;;;;;10572061;28;20043;-58
2021/05/15 10:09:52;;;;;;;8.07;7.25;;;17.60;60.80;;;;;;10542229;28;20040;-58
2021/05/15 10:14:54;;;;;;;8.82;7.65;;;17.70;61.10;;;;;;10541491;28;20106;-58
2021/05/15 10:19:55;;;;;;;8.75;7.30;;;17.60;60.90;;;;;;10533133;28;20050;-58
2021/05/15 10:24:56;;;;;;;11.68;8.65;;;17.70;61.00;;;;;;10541506;28;20030;-58
2021/05/15 10:29:56;;;;;;;8.73;7.03;;;17.70;60.90;;;;;;10522363;28;20042;-59
2021/05/15 10:35:03;;;;;;;7.60;6.63;;;17.70;60.90;;;;;;10544220;28;20032;-58
2021/05/15 10:40:19;;;;;;;8.68;7.18;;;17.70;60.90;;;;;;10540152;28;20122;-58
2021/05/15 10:45:37;;;;;;;8.20;6.68;;;17.70;60.90;;;;;;10540466;28;20085;-59
2021/05/15 10:50:52;;;;;;;8.82;7.03;;;17.70;60.90;;;;;;10569162;28;20039;-59
2021/05/15 10:56:13;;;;;;;8.60;6.97;;;17.70;60.80;;;;;;10564775;28;20431;-58
2021/05/15 11:01:20;;;;;;;8.23;6.78;;;17.70;60.90;;;;;;10576096;28;20024;-58
2021/05/15 11:06:24;;;;;;;9.02;7.60;;;17.80;61.00;;;;;;10581407;28;20058;-59
2021/05/15 11:11:42;;;;;;;8.63;7.05;;;17.70;61.00;;;;;;10539134;28;20083;-58
2021/05/15 11:16:43;;;;;;;8.52;7.45;;;17.70;61.00;;;;;;10521058;28;20067;-58
2021/05/15 11:21:53;;;;;;;8.23;6.43;;;17.70;60.90;;;;;;10539089;28;20038;-58
2021/05/15 11:26:55;;;;;;;9.68;7.18;;;17.70;60.90;;;;;;10520954;28;20039;-59
2021/05/15 11:32:08;;;;;;;9.80;7.25;;;17.70;60.80;;;;;;10520601;28;20020;-58
2021/05/15 11:37:13;;;;;;;8.55;7.00;;;17.80;61.10;;;;;;10520693;28;20039;-58
2021/05/15 11:42:14;;;;;;;7.63;6.50;;;17.80;60.90;;;;;;10567454;28;20043;-58
2021/05/15 11:47:15;;;;;;;7.60;6.70;;;17.80;60.90;;;;;;10580519;28;20475;-58
2021/05/15 11:52:16;;;;;;;8.25;7.32;;;17.80;60.70;;;;;;10580480;28;20024;-58
2021/05/15 11:57:30;;;;;;;6.90;5.90;;;17.80;60.70;;;;;;10580496;28;20114;-58
2021/05/15 12:02:31;;;;;;;7.07;6.07;;;17.80;60.60;;;;;;10565302;28;20339;-58
2021/05/15 12:07:32;;;;;;;8.88;6.38;;;17.70;60.40;;;;;;10548490;28;20039;-59
2021/05/15 12:12:33;;;;;;;7.25;5.47;;;17.80;60.50;;;;;;10530741;28;20178;-59
2021/05/15 12:17:33;;;;;;;7.22;5.85;;;17.70;60.60;;;;;;10538029;28;20123;-59
2021/05/15 12:22:34;;;;;;;6.47;5.72;;;17.70;60.60;;;;;;10519802;28;20078;-59
2021/05/15 12:27:35;;;;;;;6.43;4.60;;;17.70;60.60;;;;;;10537699;28;20028;-59
2021/05/15 12:32:37;;;;;;;5.13;4.30;;;17.70;60.70;;;;;;10537765;28;20498;-59
2021/05/15 12:37:40;;;;;;;5.75;4.22;;;17.70;60.70;;;;;;10537578;28;20024;-59
2021/05/15 12:42:40;;;;;;;6.30;4.75;;;17.70;60.80;;;;;;10541123;28;20134;-58
2021/05/15 12:47:43;;;;;;;5.93;5.28;;;17.70;60.80;;;;;;10510147;28;20028;-59
2021/05/15 12:52:44;;;;;;;6.05;4.22;;;17.70;60.80;;;;;;10526596;28;20023;-59
2021/05/15 12:57:57;;;;;;;9.40;5.38;;;17.70;60.90;;;;;;10544747;28;20074;-59
2021/05/15 13:03:04;;;;;;;7.90;4.80;;;17.70;61.00;;;;;;10540045;28;20593;-59
2021/05/15 13:08:09;;;;;;;5.35;4.25;;;17.70;61.20;;;;;;10558581;28;20479;-58
2021/05/15 13:13:10;;;;;;;5.32;4.22;;;17.70;61.20;;;;;;10549927;28;20028;-59
2021/05/15 13:18:19;;;;;;;4.30;3.70;;;17.70;61.20;;;;;;10544189;28;20032;-59
2021/05/15 13:23:19;;;;;;;4.20;3.80;;;17.70;61.10;;;;;;10543604;28;20056;-59
2021/05/15 13:28:20;;;;;;;5.53;4.22;;;17.80;61.10;;;;;;10556956;28;20532;-59
2021/05/15 13:33:21;;;;;;;4.65;3.83;;;17.80;61.20;;;;;;10543407;28;20396;-59
2021/05/15 13:38:22;;;;;;;5.28;4.10;;;17.80;61.20;;;;;;10543389;28;20380;-59
2021/05/15 13:43:22;;;;;;;6.20;4.22;;;17.80;61.20;;;;;;10542792;28;20035;-59
2021/05/15 13:48:33;;;;;;;4.93;4.05;;;17.80;61.30;;;;;;10542425;28;20032;-58
2021/05/15 13:53:37;;;;;;;5.03;3.95;;;17.80;61.30;;;;;;10542657;28;20111;-59
2021/05/15 13:58:39;;;;;;;5.25;3.83;;;17.80;61.30;;;;;;10542317;28;20035;-58
2021/05/15 14:03:40;;;;;;;5.00;4.00;;;17.80;61.30;;;;;;10569377;28;20032;-58
2021/05/15 14:08:41;;;;;;;4.20;3.50;;;17.80;61.30;;;;;;10543487;28;20055;-59
2021/05/15 14:13:42;;;;;;;5.03;3.72;;;17.80;61.30;;;;;;10524810;28;20035;-58
2021/05/15 14:18:43;;;;;;;5.72;4.25;;;17.80;61.30;;;;;;10541866;28;20035;-58
2021/05/15 14:23:43;;;;;;;4.45;4.05;;;17.80;61.20;;;;;;10541342;28;20048;-59
2021/05/15 14:28:45;;;;;;;3.72;3.33;;;17.80;61.20;;;;;;10540986;28;20035;-59
2021/05/15 14:33:45;;;;;;;4.95;3.90;;;17.80;61.20;;;;;;10540796;28;20023;-58
2021/05/15 14:38:46;;;;;;;4.40;3.80;;;17.80;61.20;;;;;;10505530;28;20044;-58
2021/05/15 14:43:47;;;;;;;4.38;3.80;;;17.80;61.30;;;;;;10540721;28;20051;-59
2021/05/15 14:48:48;;;;;;;5.53;4.22;;;17.70;61.20;;;;;;10540194;28;20024;-59
2021/05/15 14:53:48;;;;;;;4.60;3.33;;;17.80;61.30;;;;;;10540062;28;20082;-59
2021/05/15 14:58:50;;;;;;;5.07;3.42;;;17.70;61.30;;;;;;10539996;28;20484;-59
2021/05/15 15:03:51;;;;;;;4.47;3.22;;;17.70;61.40;;;;;;10534736;28;20028;-59
2021/05/15 15:08:51;;;;;;;4.10;3.30;;;17.70;61.50;;;;;;10557507;28;20162;-59
2021/05/15 15:13:52;;;;;;;5.20;2.97;;;17.80;61.60;;;;;;10557716;28;20152;-58
2021/05/15 15:18:53;;;;;;;4.07;3.28;;;17.70;61.60;;;;;;10540342;28;20032;-59
2021/05/15 15:23:55;;;;;;;4.40;3.30;;;17.80;61.70;;;;;;10539006;28;20028;-58
2021/05/15 15:28:55;;;;;;;3.75;2.88;;;17.70;61.60;;;;;;10550324;28;20063;-58
2021/05/15 15:33:57;;;;;;;5.03;3.20;;;17.80;61.60;;;;;;10538914;28;20107;-59
2021/05/15 15:38:58;;;;;;;3.85;2.70;;;17.70;61.60;;;;;;10538658;28;20052;-59
2021/05/15 15:43:59;;;;;;;3.42;2.67;;;17.70;61.60;;;;;;10542189;28;20024;-59
2021/05/15 15:49:00;;;;;;;3.70;2.60;;;17.80;61.70;;;;;;10537355;28;20115;-59
2021/05/15 15:54:01;;;;;;;4.07;3.20;;;17.70;61.60;;;;;;10520407;28;20523;-58
2021/05/15 15:59:03;;;;;;;3.78;2.83;;;17.70;61.70;;;;;;10538178;28;20457;-59
2021/05/15 16:04:05;;;;;;;3.85;3.17;;;17.70;61.70;;;;;;10537957;28;20039;-59
2021/05/15 16:09:06;;;;;;;3.17;2.50;;;17.70;61.70;;;;;;10520067;28;20070;-59
2021/05/15 16:14:06;;;;;;;4.07;2.97;;;17.70;61.80;;;;;;10550684;28;20049;-59
2021/05/15 16:19:07;;;;;;;3.75;2.90;;;17.70;61.80;;;;;;10567052;28;20024;-59
2021/05/15 16:24:08;;;;;;;3.50;2.95;;;17.70;61.90;;;;;;10546288;28;20020;-59
2021/05/15 16:29:09;;;;;;;3.75;2.78;;;17.70;61.90;;;;;;10545844;28;20111;-59
2021/05/15 16:34:10;;;;;;;2.95;2.55;;;17.70;61.90;;;;;;10545693;28;20129;-59
2021/05/15 16:39:13;;;;;;;2.95;2.20;;;17.70;61.80;;;;;;10545419;28;20546;-59
2021/05/15 16:44:15;;;;;;;3.20;2.70;;;17.70;61.80;;;;;;10532293;28;20050;-59
2021/05/15 16:49:16;;;;;;;4.63;3.28;;;17.70;61.80;;;;;;10552859;28;20035;-59
2021/05/15 16:54:16;;;;;;;3.63;2.20;;;17.70;61.80;;;;;;10544816;28;20102;-59
2021/05/15 16:59:17;;;;;;;3.63;2.92;;;17.70;61.80;;;;;;10544636;28;20107;-59
2021/05/15 17:04:18;;;;;;;4.00;2.65;;;17.70;61.80;;;;;;10526311;28;20030;-58
2021/05/15 17:09:18;;;;;;;2.95;2.58;;;17.70;61.80;;;;;;10526314;28;20016;-59
2021/05/15 17:14:19;;;;;;;3.13;2.50;;;17.70;61.80;;;;;;10563894;28;20063;-60
2021/05/15 17:19:20;;;;;;;4.65;2.50;;;17.70;61.80;;;;;;10532508;28;20036;-56
2021/05/15 17:24:21;;;;;;;4.55;2.65;;;17.70;61.90;;;;;;10544311;28;20032;-56
2021/05/15 17:29:22;;;;;;;3.70;2.42;;;17.70;62.50;;;;;;10580341;28;20032;-55
2021/05/15 17:34:23;;;;;;;3.17;2.55;;;17.70;61.90;;;;;;10555765;28;20051;-54
2021/05/15 17:39:24;;;;;;;5.18;2.67;;;17.70;61.90;;;;;;10544211;28;20111;-56
2021/05/15 17:44:25;;;;;;;4.95;2.55;;;17.70;62.20;;;;;;10561214;28;20053;-56
2021/05/15 17:49:26;;;;;;;6.95;3.15;;;17.70;62.40;;;;;;10567735;28;20024;-55
2021/05/15 17:54:26;;;;;;;7.53;2.90;;;17.70;63.20;;;;;;10575308;28;20028;-53
2021/05/15 17:59:27;;;;;;;6.78;2.70;;;17.70;63.00;;;;;;10571508;28;20123;-55
2021/05/15 18:04:28;;;;;;;5.07;3.25;;;17.70;63.00;;;;;;10573441;28;20031;-54
2021/05/15 18:09:29;;;;;;;6.55;3.33;;;17.70;63.50;;;;;;10542149;28;20100;-58
2021/05/15 18:14:33;;;;;;;6.95;4.20;;;17.70;63.50;;;;;;10563163;28;20028;-56
2021/05/15 18:19:34;;;;;;;4.40;2.63;;;17.70;63.40;;;;;;10570204;28;20031;-56
2021/05/15 18:24:35;;;;;;;5.85;2.92;;;17.70;63.30;;;;;;10563930;28;20066;-57
2021/05/15 18:29:36;;;;;;;6.85;3.35;;;17.70;63.50;;;;;;10551445;28;20111;-57
2021/05/15 18:34:36;;;;;;;6.30;2.95;;;17.70;63.60;;;;;;10578587;28;20011;-56
2021/05/15 18:39:37;;;;;;;11.07;3.42;;;17.70;63.80;;;;;;10569621;28;20052;-56
2021/05/15 18:44:38;;;;;;;7.38;3.03;;;17.70;63.90;;;;;;10571918;28;20027;-56
2021/05/15 18:49:39;;;;;;;9.73;3.35;;;17.80;63.80;;;;;;10563256;28;20028;-56
2021/05/15 18:54:40;;;;;;;12.25;3.80;;;17.70;63.80;;;;;;10555899;28;20046;-56
2021/05/15 18:59:42;;;;;;;6.68;3.55;;;17.80;63.90;;;;;;10555714;28;20039;-57
2021/05/15 19:04:43;;;;;;;11.15;4.13;;;17.80;64.10;;;;;;10577345;28;20042;-57
2021/05/15 19:09:43;;;;;;;6.03;3.25;;;17.80;64.40;;;;;;10573190;28;20032;-57
2021/05/15 19:14:44;;;;;;;8.25;3.78;;;17.80;64.70;;;;;;10547309;28;20039;-57
2021/05/15 19:19:45;;;;;;;7.35;2.88;;;17.80;64.70;;;;;;10565994;28;20030;-56
2021/05/15 19:24:46;;;;;;;4.25;3.05;;;17.80;64.70;;;;;;10568550;28;20032;-56
2021/05/15 19:29:46;;;;;;;5.72;2.70;;;17.80;64.80;;;;;;10547707;28;20021;-58
2021/05/15 19:34:47;;;;;;;9.70;3.80;;;17.80;65.00;;;;;;10556658;28;20073;-57
2021/05/15 19:39:48;;;;;;;9.98;3.80;;;17.80;64.90;;;;;;10562859;28;20044;-56
2021/05/15 19:44:49;;;;;;;7.22;3.08;;;17.80;65.00;;;;;;10560593;28;20565;-53
2021/05/15 19:49:51;;;;;;;18.85;4.65;;;17.80;64.80;;;;;;10554950;28;20032;-50
2021/05/15 19:54:52;;;;;;;8.77;3.65;;;17.80;64.60;;;;;;10573717;28;20036;-54
2021/05/15 19:59:57;;;;;;;5.63;2.67;;;17.80;64.50;;;;;;10552603;28;20081;-54
2021/05/15 20:04:58;;;;;;;6.32;2.53;;;17.70;64.40;;;;;;10552489;28;20024;-51
2021/05/15 20:09:59;;;;;;;5.13;2.95;;;17.70;64.40;;;;;;10557244;28;20100;-54
2021/05/15 20:15:03;;;;;;;6.05;2.70;;;17.70;64.30;;;;;;10568619;28;20114;-51
2021/05/15 20:20:07;;;;;;;4.93;3.38;;;17.80;64.30;;;;;;10566992;28;20032;-54
2021/05/15 20:25:09;;;;;;;3.85;2.53;;;17.70;64.30;;;;;;10567269;28;20032;-51
2021/05/15 20:30:12;;;;;;;6.47;2.67;;;17.70;64.30;;;;;;10578403;28;20040;-51
2021/05/15 20:35:13;;;;;;;3.33;2.33;;;17.70;64.40;;;;;;10567108;28;20021;-48
2021/05/15 20:40:15;;;;;;;5.15;2.38;;;17.70;64.10;;;;;;10563619;28;20058;-52
2021/05/15 20:45:17;;;;;;;4.07;2.85;;;17.70;64.00;;;;;;10560577;28;20051;-54
2021/05/15 20:50:17;;;;;;;3.38;2.17;;;17.70;63.80;;;;;;10573210;28;20092;-51
2021/05/15 20:55:18;;;;;;;5.97;2.13;;;17.70;63.60;;;;;;10572802;28;20083;-50
2021/05/15 21:00:20;;;;;;;4.72;2.42;;;17.70;63.50;;;;;;10570827;28;20118;-52
2021/05/15 21:05:21;;;;;;;4.80;2.05;;;17.60;63.40;;;;;;10509660;28;20032;-49
2021/05/15 21:10:22;;;;;;;2.78;2.28;;;17.70;63.40;;;;;;10527456;28;20028;-49
2021/05/15 21:15:23;;;;;;;3.78;2.22;;;17.60;63.40;;;;;;10557524;28;20028;-50
2021/05/15 21:20:25;;;;;;;3.20;1.80;;;17.70;63.40;;;;;;10576119;28;20061;-53
2021/05/15 21:25:26;;;;;;;4.15;1.90;;;17.60;63.20;;;;;;10567974;28;20043;-49
2021/05/15 21:30:27;;;;;;;2.55;1.80;;;17.60;63.30;;;;;;10570401;28;20035;-53
2021/05/15 21:35:28;;;;;;;3.65;2.10;;;17.60;63.30;;;;;;10530373;28;20034;-50
2021/05/15 21:40:29;;;;;;;4.03;1.80;;;17.70;63.40;;;;;;10544091;28;20377;-49
2021/05/15 21:45:30;;;;;;;4.53;2.10;;;17.60;63.30;;;;;;10543399;28;20119;-49
2021/05/15 21:50:32;;;;;;;2.65;1.83;;;17.60;63.30;;;;;;10549664;28;20027;-50
2021/05/15 21:55:34;;;;;;;2.35;1.63;;;17.60;63.30;;;;;;10574552;28;20364;-51
2021/05/15 22:00:53;;;;;;;2.33;1.63;;;17.60;63.30;;;;;;10526553;28;20111;-52
2021/05/15 22:05:57;;;;;;;3.55;1.80;;;17.60;63.30;;;;;;10574455;28;20040;-53
2021/05/15 22:11:06;;;;;;;2.88;2.15;;;17.60;63.30;;;;;;10529613;28;20475;-53
2021/05/15 22:16:06;;;;;;;3.85;2.50;;;17.60;63.30;;;;;;10569145;28;20035;-53
2021/05/15 22:21:12;;;;;;;2.70;1.88;;;17.60;63.90;;;;;;10560947;28;20024;-54
2021/05/15 22:26:13;;;;;;;3.17;1.83;;;17.60;63.20;;;;;;10542261;28;20040;-54
2021/05/15 22:31:14;;;;;;;2.90;1.83;;;17.60;63.30;;;;;;10541362;28;20046;-52
2021/05/15 22:36:19;;;;;;;2.88;1.63;;;17.50;63.30;;;;;;10567994;28;20028;-54
2021/05/15 22:41:19;;;;;;;2.88;1.63;;;17.60;63.30;;;;;;10553847;28;20459;-52
2021/05/15 22:46:23;;;;;;;3.22;1.88;;;17.50;63.30;;;;;;10541233;28;20107;-49
2021/05/15 22:51:25;;;;;;;4.72;2.33;;;17.60;63.30;;;;;;10578002;28;20106;-48
2021/05/15 22:56:28;;;;;;;2.15;1.60;;;17.50;63.20;;;;;;10549290;28;20043;-54
2021/05/15 23:01:37;;;;;;;3.17;2.45;;;17.60;63.90;;;;;;10540257;28;20051;-50
2021/05/15 23:06:37;;;;;;;3.55;2.05;;;17.50;63.20;;;;;;10540389;28;20032;-50
2021/05/15 23:11:38;;;;;;;3.33;2.20;;;17.50;63.20;;;;;;10557848;28;20455;-48
2021/05/15 23:16:40;;;;;;;4.15;2.10;;;17.50;63.10;;;;;;10542813;28;20035;-51
2021/05/15 23:21:42;;;;;;;4.18;1.88;;;17.50;63.00;;;;;;10539365;28;20136;-52
2021/05/15 23:26:43;;;;;;;2.97;2.10;;;17.50;62.90;;;;;;10563076;28;20040;-49
2021/05/15 23:31:43;;;;;;;2.92;2.20;;;17.50;63.00;;;;;;10540609;28;20027;-53
2021/05/15 23:36:44;;;;;;;4.45;2.10;;;17.50;63.10;;;;;;10539632;28;20492;-49
2021/05/15 23:41:45;;;;;;;3.05;1.80;;;17.40;63.00;;;;;;10538520;28;20113;-49
2021/05/15 23:46:46;;;;;;;4.05;2.33;;;17.40;63.00;;;;;;10539410;28;20036;-53
2021/05/15 23:51:47;;;;;;;4.53;2.13;;;17.40;63.00;;;;;;10521248;28;20036;-49
2021/05/15 23:56:48;;;;;;;3.50;1.92;;;17.40;63.10;;;;;;10521030;28;20040;-50
